Time;durP1;ratioP1;P1;durP2;ratioP2;P2;SDS_P1;SDS_P2;PMS_P1;PMS_P2;Temp;Humidity;BMP_temperature;BMP_pressure;BME280_temperature;BME280_humidity;BME280_pressure;Samples;Min_cycle;Max_cycle;Signal;HPM_P1;HPM_P2
2023/09/01 00:02:59;;;;;;;;;;;17.50;53.00;;;16.53;54.63;100860.28;12135957;19;19950;-83
2023/09/01 00:07:01;;;;;;;;;;;17.40;53.00;;;16.50;54.56;100854.41;12138523;19;19930;-83
2023/09/01 00:11:03;;;;;;;;;;;17.40;53.00;;;16.44;54.44;100858.34;12138668;19;19937;-83
2023/09/01 00:15:04;;;;;;;;;;;17.30;53.00;;;16.44;54.55;100862.78;12139277;19;20463;-83
2023/09/01 00:19:06;;;;;;;;;;;17.30;53.10;;;16.43;54.74;100863.75;12137514;19;20175;-83
2023/09/01 00:23:07;;;;;;;;;;;17.30;53.10;;;16.36;54.61;100861.59;12135430;19;20324;-83
2023/09/01 00:27:09;;;;;;;;;;;17.30;53.00;;;16.31;54.63;100855.84;12137908;19;20180;-83
2023/09/01 00:31:11;;;;;;;;;;;17.20;53.00;;;16.37;54.70;100871.19;12138073;19;19919;-83
2023/09/01 00:35:13;;;;;;;;;;;17.20;53.10;;;16.33;54.70;100864.44;12134762;19;20472;-83
2023/09/01 00:39:14;;;;;;;;;;;17.20;53.10;;;16.30;54.65;100866.50;12134495;19;20530;-83
2023/09/01 00:43:16;;;;;;;;;;;17.10;53.40;;;16.29;54.64;100881.47;12133610;19;19926;-82
2023/09/01 00:47:19;;;;;;;;;;;17.10;53.00;;;16.17;54.66;100858.69;12134395;19;19946;-83
2023/09/01 00:51:20;;;;;;;;;;;17.10;53.00;;;16.21;54.61;100873.31;12135169;19;19927;-83
2023/09/01 00:55:22;;;;;;;;;;;17.10;53.00;;;16.15;54.71;100869.34;12135570;19;20190;-83
2023/09/01 00:59:24;;;;;;;;;;;17.00;53.10;;;16.06;54.78;100853.41;12133661;19;19946;-83
2023/09/01 01:03:26;;;;;;;;;;;17.00;53.00;;;16.11;54.72;100872.34;12132147;19;19922;-83
2023/09/01 01:07:38;;;;;;;;;;;17.00;53.00;;;16.10;54.69;100873.31;12132928;19;19930;-83
2023/09/01 01:11:51;;;;;;;;;;;17.00;53.00;;;16.10;54.69;100875.94;12132943;19;20726;-83
2023/09/01 01:15:55;;;;;;;;;;;17.00;53.00;;;16.07;54.78;100878.81;12133376;19;19941;-83
2023/09/01 01:20:15;;;;;;;;;;;16.90;53.10;;;16.00;54.98;100875.78;12129800;19;20433;-83
2023/09/01 01:24:17;;;;;;;;;;;16.90;53.00;;;15.96;54.63;100866.44;12131256;19;20296;-83
2023/09/01 01:28:20;;;;;;;;;;;16.90;53.00;;;15.97;54.81;100876.03;12127935;19;20372;-82
2023/09/01 01:32:22;;;;;;;;;;;16.80;53.00;;;15.93;54.92;100879.81;12131872;19;20231;-83
2023/09/01 01:36:49;;;;;;;;;;;16.80;53.10;;;15.88;54.86;100872.28;12131248;19;19974;-82
2023/09/01 01:40:52;;;;;;;;;;;16.80;53.30;;;15.84;54.66;100870.00;12131666;19;20315;-83
2023/09/01 01:44:56;;;;;;;;;;;16.70;53.10;;;15.87;54.86;100870.59;12134621;19;19930;-83
2023/09/01 01:48:58;;;;;;;;;;;16.70;53.10;;;15.84;54.85;100868.19;12129479;19;19950;-83
2023/09/01 01:53:00;;;;;;;;;;;16.70;53.10;;;15.76;54.78;100857.41;12124900;19;19922;-82
2023/09/01 01:57:02;;;;;;;;;;;16.70;53.10;;;15.67;54.77;100848.38;12132022;19;19919;-83
2023/09/01 02:01:07;;;;;;;;;;;16.70;53.00;;;15.72;54.91;100866.50;12132343;19;20272;-83
2023/09/01 02:05:09;;;;;;;;;;;16.70;53.00;;;15.77;54.99;100880.16;12139489;19;20224;-83
2023/09/01 02:09:11;;;;;;;;;;;16.60;53.00;;;15.74;54.79;100880.38;12137489;19;20749;-83
2023/09/01 02:13:13;;;;;;;;;;;16.60;53.00;;;15.72;54.86;100878.81;12139572;19;19930;-83
2023/09/01 02:17:14;;;;;;;;;;;16.60;53.00;;;15.66;54.93;100872.16;12144103;19;20050;-82
2023/09/01 02:21:19;;;;;;;;;;;16.60;53.00;;;15.65;54.57;100879.22;12142390;19;19919;-83
2023/09/01 02:25:21;;;;;;;;;;;16.60;53.00;;;15.56;54.72;100876.47;12144024;19;19932;-83
2023/09/01 02:29:22;;;;;;;;;;;16.50;53.00;;;15.55;54.83;100870.31;12140483;19;20199;-83
2023/09/01 02:33:24;;;;;;;;;;;16.50;53.00;;;15.49;54.78;100884.78;12138895;19;20219;-84
2023/09/01 02:37:26;;;;;;;;;;;16.40;52.90;;;15.34;54.73;100867.50;12142045;19;19915;-83
2023/09/01 02:41:28;;;;;;;;;;;16.30;52.80;;;15.32;54.75;100871.19;12140905;19;20367;-83
2023/09/01 02:45:30;;;;;;;;;;;16.20;52.70;;;15.20;54.90;100868.50;12142328;19;19923;-84
2023/09/01 02:49:31;;;;;;;;;;;16.20;52.80;;;15.22;54.73;100889.41;12142014;19;20889;-83
2023/09/01 02:53:34;;;;;;;;;;;16.10;52.80;;;15.15;54.86;100882.91;12140172;19;20012;-83
2023/09/01 02:57:36;;;;;;;;;;;16.20;52.90;;;15.14;54.72;100897.84;12141611;19;19915;-83
2023/09/01 03:01:38;;;;;;;;;;;16.00;52.90;;;15.01;54.84;100879.50;12139170;19;20018;-83
2023/09/01 03:05:41;;;;;;;;;;;15.90;52.90;;;14.96;54.87;100880.75;12136895;19;19918;-83
2023/09/01 03:09:42;;;;;;;;;;;15.90;53.00;;;15.04;54.81;100888.94;12138780;19;20219;-83
2023/09/01 03:13:44;;;;;;;;;;;16.00;53.10;;;15.02;55.02;100898.75;12138555;19;19923;-83
2023/09/01 03:17:46;;;;;;;;;;;15.90;53.10;;;14.99;54.89;100898.97;12140269;19;20011;-83
2023/09/01 03:21:47;;;;;;;;;;;15.90;53.30;;;14.95;54.88;100911.47;12133899;19;20763;-83
2023/09/01 03:25:56;;;;;;;;;;;15.80;53.00;;;14.90;54.92;100903.06;12135914;19;20247;-84
2023/09/01 03:30:00;;;;;;;;;;;15.80;53.00;;;14.81;54.79;100901.09;12134358;19;19922;-84
2023/09/01 03:34:07;;;;;;;;;;;15.80;53.00;;;14.78;54.89;100911.84;12132602;19;20835;-83
2023/09/01 03:38:10;;;;;;;;;;;15.70;52.90;;;14.64;54.79;100899.66;12137587;19;19918;-84
2023/09/01 03:42:11;;;;;;;;;;;15.60;52.90;;;14.55;54.93;100906.38;12134573;19;20261;-84
2023/09/01 03:46:13;;;;;;;;;;;15.50;52.80;;;14.51;54.86;100911.94;12137056;19;20363;-83
2023/09/01 03:50:14;;;;;;;;;;;15.40;52.80;;;14.40;54.77;100912.66;12136442;19;19923;-84
2023/09/01 03:54:15;;;;;;;;;;;15.30;52.70;;;14.33;54.96;100919.28;12137391;19;20299;-84
2023/09/01 03:58:17;;;;;;;;;;;15.20;52.80;;;14.28;54.77;100913.47;12138486;19;20463;-84
2023/09/01 04:02:18;;;;;;;;;;;15.20;52.80;;;14.23;54.91;100919.06;12134777;19;19923;-84
2023/09/01 04:06:20;;;;;;;;;;;15.10;52.70;;;14.10;54.87;100905.91;12138332;19;20238;-84
2023/09/01 04:10:22;;;;;;;;;;;15.10;52.80;;;14.07;54.80;100908.75;12135713;19;19919;-83
2023/09/01 04:14:24;;;;;;;;;;;15.00;52.90;;;13.95;54.68;100909.56;12136152;19;19919;-84
2023/09/01 04:18:26;;;;;;;;;;;14.90;52.90;;;13.83;54.98;100898.09;12135150;19;19937;-83
2023/09/01 04:22:28;;;;;;;;;;;14.80;52.90;;;13.88;54.93;100911.75;12125748;19;20267;-84
2023/09/01 04:26:29;;;;;;;;;;;14.80;53.00;;;13.73;54.89;100889.13;12135815;19;20404;-84
2023/09/01 04:30:31;;;;;;;;;;;14.80;53.00;;;13.78;55.04;100908.06;12134601;19;19922;-84
2023/09/01 04:34:33;;;;;;;;;;;14.70;53.00;;;13.77;54.97;100908.13;12127914;19;20359;-84
2023/09/01 04:38:34;;;;;;;;;;;14.60;53.00;;;13.76;55.08;100923.06;12134913;19;19927;-84
2023/09/01 04:42:36;;;;;;;;;;;14.70;53.20;;;13.73;55.16;100931.97;12133476;19;19926;-84
2023/09/01 04:46:37;;;;;;;;;;;14.70;53.20;;;13.76;55.09;100936.19;12134836;19;19919;-84
2023/09/01 04:50:39;;;;;;;;;;;14.70;53.30;;;13.69;55.17;100916.50;12132741;19;20299;-84
2023/09/01 04:54:42;;;;;;;;;;;14.60;53.50;;;13.72;55.11;100919.78;12129563;19;20497;-84
2023/09/01 04:58:44;;;;;;;;;;;14.70;53.50;;;13.68;55.08;100910.41;12131144;19;20294;-84
2023/09/01 05:02:45;;;;;;;;;;;14.70;53.70;;;13.76;55.29;100916.97;12115708;19;20963;-82
2023/09/01 05:06:47;;;;;;;;;;;14.70;53.80;;;13.85;55.38;100919.84;12120566;19;19926;-82
2023/09/01 05:10:50;;;;;;;;;;;14.80;53.90;;;13.95;55.32;100935.81;12117478;19;20309;-82
2023/09/01 05:14:52;;;;;;;;;;;14.80;53.90;;;14.00;55.50;100932.88;12120444;19;19930;-81
2023/09/01 05:18:53;;;;;;;;;;;14.90;53.90;;;14.05;55.53;100936.06;12118588;19;20375;-82
2023/09/01 05:22:54;;;;;;;;;;;15.00;54.40;;;14.05;55.50;100929.00;12114200;19;19923;-82
2023/09/01 05:26:57;;;;;;;;;;;15.00;54.20;;;14.11;55.39;100936.47;12119140;19;19944;-84
2023/09/01 05:30:59;;;;;;;;;;;15.10;54.40;;;14.14;55.56;100932.81;12117002;19;20658;-84
2023/09/01 05:35:04;;;;;;;;;;;15.10;54.40;;;14.20;55.55;100931.53;12116960;19;20588;-84
2023/09/01 05:39:05;;;;;;;;;;;15.20;54.40;;;14.21;55.78;100925.38;12125170;19;20723;-84
2023/09/01 05:43:07;;;;;;;;;;;15.20;54.50;;;14.30;55.58;100938.72;12125519;19;20796;-83
2023/09/01 05:47:08;;;;;;;;;;;15.30;54.70;;;14.31;55.71;100943.03;12127336;19;19934;-84
2023/09/01 05:51:10;;;;;;;;;;;15.40;54.60;;;14.42;55.72;100951.94;12128080;19;20724;-84
2023/09/01 05:55:13;;;;;;;;;;;15.40;54.70;;;14.46;55.86;100956.91;12128765;19;19930;-83
2023/09/01 05:59:15;;;;;;;;;;;15.50;54.80;;;14.34;55.68;100929.69;12131102;19;20385;-83
2023/09/01 06:03:17;;;;;;;;;;;15.50;54.80;;;14.54;55.71;100957.25;12128551;19;19937;-83
2023/09/01 06:07:18;;;;;;;;;;;15.60;55.00;;;14.55;55.93;100948.41;12128786;19;20591;-83
2023/09/01 06:11:19;;;;;;;;;;;15.70;54.90;;;14.73;55.96;100975.25;12131605;19;19925;-83
2023/09/01 06:15:21;;;;;;;;;;;15.80;55.10;;;14.85;55.96;100981.44;12130378;19;19929;-84
2023/09/01 06:19:22;;;;;;;;;;;15.80;55.10;;;14.92;55.88;100977.44;12130199;19;19943;-83
2023/09/01 06:23:24;;;;;;;;;;;16.00;55.00;;;14.99;56.13;100976.06;12127480;19;19930;-84
2023/09/01 06:27:26;;;;;;;;;;;16.10;55.10;;;15.14;56.04;100987.28;12122715;19;19930;-83
2023/09/01 06:31:28;;;;;;;;;;;16.20;55.20;;;15.18;55.97;100980.06;12128550;19;19923;-83
2023/09/01 06:35:30;;;;;;;;;;;16.30;55.10;;;15.34;56.16;100987.69;12128986;19;19927;-83
2023/09/01 06:39:32;;;;;;;;;;;16.40;55.00;;;15.41;56.07;100991.56;12129865;19;20985;-83
2023/09/01 06:43:33;;;;;;;;;;;16.50;55.40;;;15.52;55.92;100996.06;12121892;19;20361;-83
2023/09/01 06:47:35;;;;;;;;;;;16.60;55.00;;;15.51;56.12;100974.16;12125740;19;19946;-83
2023/09/01 06:51:37;;;;;;;;;;;16.70;55.40;;;15.68;56.09;100991.38;12116316;19;19919;-83
2023/09/01 06:55:38;;;;;;;;;;;16.80;55.10;;;15.76;56.02;100991.69;12128692;19;19933;-83
2023/09/01 06:59:40;;;;;;;;;;;16.90;55.90;;;15.85;56.19;100992.81;12124776;19;19931;-82
2023/09/01 07:03:42;;;;;;;;;;;17.00;55.40;;;15.99;56.03;100991.81;12116323;19;20875;-83
2023/09/01 07:07:43;;;;;;;;;;;17.10;55.20;;;16.03;56.26;100996.72;12118956;19;19960;-82
2023/09/01 07:11:45;;;;;;;;;;;17.20;55.10;;;16.13;56.12;100992.47;12117705;19;19926;-82
2023/09/01 07:15:48;;;;;;;;;;;17.30;55.00;;;16.14;56.29;100988.03;12120573;19;20011;-84
2023/09/01 07:19:49;;;;;;;;;;;17.40;55.40;;;16.36;56.44;100997.78;12121625;19;19926;-83
2023/09/01 07:23:51;;;;;;;;;;;17.50;55.40;;;16.47;56.25;101000.50;12117659;19;19918;-82
2023/09/01 07:27:52;;;;;;;;;;;17.60;55.10;;;16.39;56.50;100973.88;12119590;19;19927;-83
2023/09/01 07:31:54;;;;;;;;;;;17.70;55.10;;;16.59;56.23;100983.72;12119737;19;20262;-83
2023/09/01 07:35:55;;;;;;;;;;;17.80;55.10;;;16.81;56.29;101008.47;12118158;19;20199;-83
2023/09/01 07:39:56;;;;;;;;;;;18.00;55.10;;;16.98;56.48;101015.09;12120726;19;20689;-83
2023/09/01 07:43:58;;;;;;;;;;;18.10;55.10;;;17.08;56.58;101010.78;12122770;19;19919;-82
2023/09/01 07:47:59;;;;;;;;;;;18.20;55.10;;;17.23;56.61;101014.88;12120543;19;20393;-83
2023/09/01 07:52:00;;;;;;;;;;;18.40;55.20;;;17.41;56.61;101017.00;12119063;19;19923;-83
2023/09/01 07:56:02;;;;;;;;;;;18.60;55.60;;;17.58;56.57;101021.78;12122076;19;19929;-83
2023/09/01 08:00:07;;;;;;;;;;;18.80;55.30;;;17.76;56.75;101026.53;12119102;19;19930;-83
2023/09/01 08:04:14;;;;;;;;;;;18.90;55.30;;;17.89;56.85;101011.41;12126056;19;19951;-83
2023/09/01 08:08:16;;;;;;;;;;;19.10;55.50;;;18.10;56.58;101019.41;12121534;19;19919;-83
2023/09/01 08:12:17;;;;;;;;;;;19.40;55.10;;;18.28;56.63;101020.53;12119759;19;20765;-84
2023/09/01 08:16:18;;;;;;;;;;;19.50;55.10;;;18.53;56.84;101027.25;12119733;19;20018;-82
2023/09/01 08:20:20;;;;;;;;;;;19.70;55.00;;;18.72;56.85;101023.88;12120296;19;19963;-83
2023/09/01 08:24:22;;;;;;;;;;;20.00;55.00;;;18.94;56.88;101030.84;12119428;19;20026;-83
2023/09/01 08:28:24;;;;;;;;;;;20.10;54.50;;;19.03;56.90;101015.97;12115084;19;19934;-83
2023/09/01 08:32:25;;;;;;;;;;;20.30;54.60;;;19.27;56.75;101039.50;12115678;19;19926;-83
2023/09/01 08:36:26;;;;;;;;;;;20.50;54.80;;;19.39;56.71;101029.66;12117859;19;19936;-84
2023/09/01 08:40:28;;;;;;;;;;;20.70;54.60;;;19.63;56.67;101029.28;12106904;19;20310;-85
2023/09/01 08:44:32;;;;;;;;;;;20.90;54.60;;;19.82;56.61;101042.63;12107566;19;21155;-85
2023/09/01 08:48:34;;;;;;;;;;;21.10;54.20;;;20.03;56.82;101055.75;12115076;19;20691;-85
2023/09/01 08:52:38;;;;;;;;;;;21.30;53.90;;;20.21;56.60;101047.13;12108399;19;19914;-85
2023/09/01 08:56:40;;;;;;;;;;;21.50;54.10;;;20.30;56.57;101036.50;12117533;19;19919;-85
2023/09/01 09:00:41;;;;;;;;;;;21.60;52.60;;;20.48;56.63;101039.28;12115987;19;19927;-86
2023/09/01 09:04:43;;;;;;;;;;;21.80;53.40;;;20.62;56.78;101043.34;12120198;19;19931;-85
2023/09/01 09:08:44;;;;;;;;;;;21.90;53.50;;;20.77;56.56;101046.41;12115869;19;20014;-85
2023/09/01 09:12:45;;;;;;;;;;;22.00;53.60;;;20.94;56.75;101040.34;12122561;19;20628;-85
2023/09/01 09:16:51;;;;;;;;;;;22.20;53.70;;;21.10;56.88;101037.06;12136099;19;19930;-84
2023/09/01 09:20:53;;;;;;;;;;;22.30;53.10;;;21.26;56.93;101040.94;12131647;19;20399;-85
2023/09/01 09:24:55;;;;;;;;;;;22.50;53.60;;;21.37;56.70;101030.13;12132828;19;19927;-85
2023/09/01 09:29:12;;;;;;;;;;;22.70;53.40;;;21.58;56.80;101040.53;12124477;19;20021;-85
2023/09/01 09:33:13;;;;;;;;;;;22.80;53.20;;;21.71;56.69;101033.03;12129747;19;19910;-85
2023/09/01 09:37:18;;;;;;;;;;;23.00;53.40;;;21.89;56.41;101035.69;12131918;19;20854;-85
2023/09/01 09:41:19;;;;;;;;;;;23.20;53.00;;;21.99;56.43;101040.97;12130947;19;19947;-85
2023/09/01 09:45:24;;;;;;;;;;;23.30;52.50;;;22.13;56.45;101047.56;12128891;19;19930;-85
2023/09/01 09:49:30;;;;;;;;;;;23.40;52.60;;;22.20;56.07;101048.69;12129952;19;20753;-85
2023/09/01 09:53:33;;;;;;;;;;;23.50;51.80;;;22.25;56.04;101030.41;12126751;19;19930;-86
2023/09/01 09:57:34;;;;;;;;;;;23.60;52.30;;;22.37;56.08;101034.50;12132814;19;20735;-85
2023/09/01 10:01:39;;;;;;;;;;;23.70;51.50;;;22.49;56.12;101043.06;12125568;19;19945;-85
2023/09/01 10:05:41;;;;;;;;;;;23.80;51.90;;;22.55;55.88;101047.81;12129277;19;19971;-85
2023/09/01 10:09:44;;;;;;;;;;;23.90;51.40;;;22.55;55.98;101047.81;12125579;19;19934;-85
2023/09/01 10:13:46;;;;;;;;;;;23.90;50.90;;;22.64;55.66;101052.19;12138564;19;20055;-85
2023/09/01 10:17:49;;;;;;;;;;;23.90;51.30;;;22.77;55.85;101046.44;12140487;19;20772;-85
2023/09/01 10:21:50;;;;;;;;;;;23.90;51.10;;;22.87;55.81;101046.34;12136009;19;19919;-84
2023/09/01 10:26:11;;;;;;;;;;;24.10;51.30;;;23.05;55.45;101059.63;12141717;19;19926;-84
2023/09/01 10:30:30;;;;;;;;;;;24.20;51.70;;;23.05;55.29;101040.97;12141283;19;19925;-84
2023/09/01 10:34:32;;;;;;;;;;;24.30;51.20;;;23.11;55.68;101046.50;12142703;19;19922;-85
2023/09/01 10:38:33;;;;;;;;;;;24.40;50.70;;;23.23;55.45;101047.06;12139164;19;19948;-85
2023/09/01 10:42:40;;;;;;;;;;;24.40;51.00;;;23.23;55.21;101036.41;12138256;19;20362;-85
2023/09/01 10:46:41;;;;;;;;;;;24.50;50.70;;;23.28;55.15;101039.44;12139991;19;19922;-86
2023/09/01 10:50:42;;;;;;;;;;;24.50;49.80;;;23.37;55.27;101048.31;12142943;19;19915;-85
2023/09/01 10:54:44;;;;;;;;;;;24.50;50.80;;;23.39;55.35;101047.16;12145575;19;19927;-86
2023/09/01 10:58:49;;;;;;;;;;;24.50;50.00;;;23.53;55.18;101058.19;12146465;19;20021;-86
2023/09/01 11:02:51;;;;;;;;;;;24.60;50.10;;;23.52;54.92;101040.50;12137382;19;20290;-84
2023/09/01 11:06:56;;;;;;;;;;;24.70;50.30;;;23.69;54.76;101047.56;12140505;19;19944;-86
2023/09/01 11:11:10;;;;;;;;;;;24.80;50.90;;;23.72;55.07;101052.63;12145147;19;19919;-86
2023/09/01 11:15:11;;;;;;;;;;;24.90;49.80;;;23.68;54.54;101031.72;12143967;19;19926;-85
2023/09/01 11:19:13;;;;;;;;;;;24.90;49.90;;;23.73;54.83;101053.44;12145139;19;20815;-85
2023/09/01 11:23:25;;;;;;;;;;;24.90;50.10;;;23.77;54.48;101065.47;12137748;19;20700;-85
2023/09/01 11:27:26;;;;;;;;;;;24.90;50.20;;;23.59;54.60;101020.22;12139742;19;19923;-84
2023/09/01 11:31:41;;;;;;;;;;;24.90;50.20;;;23.81;54.64;101059.63;12135388;19;19927;-86
2023/09/01 11:35:42;;;;;;;;;;;24.90;49.40;;;23.82;54.28;101058.66;12138388;19;19935;-85
2023/09/01 11:39:44;;;;;;;;;;;24.90;50.20;;;23.84;54.48;101064.66;12139048;19;20180;-84
2023/09/01 11:43:46;;;;;;;;;;;24.90;50.30;;;23.68;54.14;101032.56;12138527;19;19942;-84
2023/09/01 11:47:52;;;;;;;;;;;24.90;50.00;;;23.91;54.41;101061.34;12136137;19;20277;-85
2023/09/01 11:51:53;;;;;;;;;;;25.00;50.30;;;23.91;53.90;101064.81;12138904;19;20700;-86
2023/09/01 11:55:58;;;;;;;;;;;25.00;49.90;;;23.92;53.98;101046.97;12138159;19;20644;-84
2023/09/01 11:59:59;;;;;;;;;;;25.00;50.10;;;23.97;54.06;101052.66;12138691;19;20015;-85
2023/09/01 12:04:06;;;;;;;;;;;25.00;49.80;;;24.02;53.84;101061.84;12138679;19;19931;-85
2023/09/01 12:08:09;;;;;;;;;;;25.00;50.30;;;24.06;53.90;101065.88;12136122;19;19919;-85
2023/09/01 12:12:10;;;;;;;;;;;25.00;48.30;;;24.10;53.73;101069.03;12136077;19;20311;-86
2023/09/01 12:16:20;;;;;;;;;;;25.10;49.80;;;24.05;53.88;101056.16;12133239;19;20198;-84
2023/09/01 12:20:22;;;;;;;;;;;25.10;49.00;;;24.11;53.58;101053.84;12141762;19;20006;-85
2023/09/01 12:24:25;;;;;;;;;;;25.20;49.70;;;24.13;53.56;101049.19;12134137;19;19948;-84
2023/09/01 12:28:29;;;;;;;;;;;25.10;49.80;;;24.20;53.51;101055.53;12131865;19;19926;-85
2023/09/01 12:32:30;;;;;;;;;;;25.10;49.30;;;24.19;53.42;101033.34;12137520;19;19922;-86
2023/09/01 12:36:32;;;;;;;;;;;25.20;46.00;;;24.25;53.44;101046.03;12141539;19;20672;-85
2023/09/01 12:40:34;;;;;;;;;;;25.20;49.40;;;24.35;53.59;101037.00;12133766;19;20742;-85
2023/09/01 12:44:37;;;;;;;;;;;25.30;49.30;;;24.42;53.55;101038.03;12139855;19;19926;-85
2023/09/01 12:48:38;;;;;;;;;;;25.40;49.10;;;24.60;53.26;101062.75;12134002;19;20464;-85
2023/09/01 12:52:40;;;;;;;;;;;25.50;49.70;;;24.62;53.22;101039.34;12132852;19;19931;-85
2023/09/01 12:56:44;;;;;;;;;;;25.70;50.00;;;24.66;52.90;101042.53;12134843;19;19923;-85
2023/09/01 13:00:46;;;;;;;;;;;25.70;49.90;;;24.68;52.94;101048.53;12139686;19;19922;-85
2023/09/01 13:04:47;;;;;;;;;;;25.80;49.50;;;24.73;52.95;101057.72;12139963;19;19919;-85
2023/09/01 13:08:49;;;;;;;;;;;25.80;49.60;;;24.68;53.16;101045.84;12133575;19;20202;-85
2023/09/01 13:12:50;;;;;;;;;;;25.70;49.40;;;24.74;52.96;101047.88;12135721;19;19934;-85
2023/09/01 13:16:52;;;;;;;;;;;25.70;49.30;;;24.73;52.93;101048.84;12139251;19;20694;-87
2023/09/01 13:20:53;;;;;;;;;;;25.70;49.50;;;24.72;52.68;101055.22;12135769;19;20207;-85
2023/09/01 13:24:55;;;;;;;;;;;25.70;49.30;;;24.69;52.93;101048.38;12136759;19;19947;-85
2023/09/01 13:28:58;;;;;;;;;;;25.70;47.20;;;24.64;52.89;101058.72;12132829;19;19918;-85
2023/09/01 13:33:00;;;;;;;;;;;25.70;48.80;;;24.62;52.47;101047.38;12131185;19;20801;-86
2023/09/01 13:37:02;;;;;;;;;;;25.60;49.10;;;24.70;52.18;101047.34;12128325;19;21678;-85
2023/09/01 13:41:03;;;;;;;;;;;25.60;49.10;;;24.76;52.43;101055.69;12127193;19;20715;-84
2023/09/01 13:45:05;;;;;;;;;;;25.60;49.10;;;24.74;52.43;101045.19;12137289;19;20286;-84
2023/09/01 13:49:09;;;;;;;;;;;25.60;48.70;;;24.75;52.50;101046.84;12129548;19;19919;-84
2023/09/01 13:53:10;;;;;;;;;;;25.60;49.00;;;24.75;52.21;101043.34;12130619;19;20194;-84
2023/09/01 13:57:11;;;;;;;;;;;25.60;49.10;;;24.80;52.19;101046.34;12132450;19;20463;-84
2023/09/01 14:01:13;;;;;;;;;;;25.60;48.20;;;24.81;51.90;101054.19;12143970;19;19930;-84
2023/09/01 14:05:15;;;;;;;;;;;25.60;49.20;;;24.76;51.76;101045.00;12142864;19;19950;-85
2023/09/01 14:09:18;;;;;;;;;;;25.70;48.20;;;24.79;52.15;101045.53;12139285;19;20888;-84
2023/09/01 14:13:19;;;;;;;;;;;25.70;49.10;;;24.79;51.94;101047.34;12135671;19;20428;-84
2023/09/01 14:17:21;;;;;;;;;;;25.60;49.00;;;24.77;51.73;101038.69;12144689;19;19915;-84
2023/09/01 14:21:22;;;;;;;;;;;25.60;49.10;;;24.79;51.54;101047.34;12142502;19;19926;-84
2023/09/01 14:25:24;;;;;;;;;;;25.60;49.00;;;24.73;51.97;101036.38;12141671;19;20776;-84
2023/09/01 14:29:26;;;;;;;;;;;25.60;49.00;;;24.70;51.51;101025.16;12139846;19;20711;-84
2023/09/01 14:33:27;;;;;;;;;;;25.60;49.00;;;24.71;51.79;101027.69;12137867;19;19922;-84
2023/09/01 14:37:28;;;;;;;;;;;25.60;48.60;;;24.74;51.65;101031.84;12139126;19;19926;-84
2023/09/01 14:41:30;;;;;;;;;;;25.60;49.00;;;24.68;51.83;101022.69;12140594;19;19930;-84
2023/09/01 14:45:35;;;;;;;;;;;25.60;48.90;;;24.72;51.51;101029.34;12140435;19;20184;-84
2023/09/01 14:49:36;;;;;;;;;;;25.60;49.00;;;24.76;51.48;101039.66;12138685;19;19930;-84
2023/09/01 14:53:38;;;;;;;;;;;25.60;49.00;;;24.75;51.37;101052.19;12136901;19;19961;-84
2023/09/01 14:57:39;;;;;;;;;;;25.60;48.90;;;24.64;51.40;101032.03;12137134;19;20776;-84
2023/09/01 15:01:41;;;;;;;;;;;25.50;48.90;;;24.65;51.10;101040.84;12136976;19;21094;-84
2023/09/01 15:05:42;;;;;;;;;;;25.50;48.90;;;24.61;51.34;101032.34;12139254;19;19936;-83
2023/09/01 15:09:44;;;;;;;;;;;25.50;49.00;;;24.75;51.28;101059.38;12135474;19;19968;-84
2023/09/01 15:13:45;;;;;;;;;;;25.50;48.90;;;24.66;51.05;101051.38;12140231;19;20207;-84
2023/09/01 15:17:47;;;;;;;;;;;25.50;49.00;;;24.68;51.02;101040.50;12140492;19;19911;-84
2023/09/01 15:21:48;;;;;;;;;;;25.50;49.10;;;24.73;51.41;101051.53;12135937;19;19926;-84
2023/09/01 15:25:50;;;;;;;;;;;25.50;49.10;;;24.60;51.23;101030.72;12136178;19;19930;-84
2023/09/01 15:29:52;;;;;;;;;;;25.50;49.00;;;24.61;51.18;101021.69;12129501;19;19926;-84
2023/09/01 15:33:53;;;;;;;;;;;25.50;49.30;;;24.70;51.08;101036.66;12137918;19;19930;-84
2023/09/01 15:37:55;;;;;;;;;;;25.50;49.40;;;24.70;51.25;101041.19;12135009;19;19931;-83
2023/09/01 15:41:56;;;;;;;;;;;25.50;49.60;;;24.67;51.21;101039.69;12131778;19;20144;-84
2023/09/01 15:45:58;;;;;;;;;;;25.50;49.70;;;24.67;51.05;101041.53;12136824;19;19954;-84
2023/09/01 15:49:59;;;;;;;;;;;25.50;49.50;;;24.69;51.14;101061.72;12131876;19;19934;-84
2023/09/01 15:54:01;;;;;;;;;;;25.40;49.30;;;24.68;50.85;101059.22;12134658;19;19926;-84
2023/09/01 15:58:04;;;;;;;;;;;25.40;49.20;;;24.65;50.94;101060.38;12135966;19;19929;-84
2023/09/01 16:02:05;;;;;;;;;;;25.40;49.30;;;24.64;50.72;101058.72;12130852;19;20013;-84
2023/09/01 16:06:07;;;;;;;;;;;25.40;49.40;;;24.61;50.91;101059.06;12136712;19;19919;-84
2023/09/01 16:10:09;;;;;;;;;;;25.30;49.70;;;24.58;50.93;101059.41;12131386;19;19923;-84
2023/09/01 16:14:11;;;;;;;;;;;25.30;49.80;;;24.56;50.68;101058.72;12137734;19;20877;-84
2023/09/01 16:18:13;;;;;;;;;;;25.30;49.80;;;24.50;50.79;101064.75;12133351;19;19930;-84
2023/09/01 16:22:14;;;;;;;;;;;25.30;49.90;;;24.46;50.88;101066.06;12132330;19;20357;-84
2023/09/01 16:26:19;;;;;;;;;;;25.20;49.90;;;24.39;51.03;101071.22;12129163;19;20317;-84
2023/09/01 16:30:21;;;;;;;;;;;25.10;49.70;;;24.33;50.82;101063.03;12134052;19;19999;-84
2023/09/01 16:34:22;;;;;;;;;;;25.10;49.80;;;24.23;50.58;101050.69;12135733;19;20376;-85
2023/09/01 16:38:24;;;;;;;;;;;25.00;49.80;;;24.22;50.50;101065.06;12137907;19;19995;-85
2023/09/01 16:42:25;;;;;;;;;;;25.00;49.90;;;24.16;50.42;101054.19;12133039;19;19950;-84
2023/09/01 16:46:27;;;;;;;;;;;24.90;50.00;;;24.07;50.90;101056.03;12136015;19;20740;-84
2023/09/01 16:50:29;;;;;;;;;;;24.80;50.00;;;23.97;50.45;101058.81;12133761;19;19927;-84
2023/09/01 16:54:31;;;;;;;;;;;24.70;50.40;;;23.91;50.65;101054.16;12136293;19;20026;-83
2023/09/01 16:58:32;;;;;;;;;;;24.60;50.00;;;23.76;50.47;101053.13;12135076;19;21048;-84
2023/09/01 17:02:34;;;;;;;;;;;24.60;50.10;;;23.69;50.78;101047.56;12133017;19;20255;-84
2023/09/01 17:06:35;;;;;;;;;;;24.50;50.10;;;23.76;50.63;101069.13;12135770;19;19927;-84
2023/09/01 17:10:37;;;;;;;;;;;24.40;50.10;;;23.53;50.81;101039.53;12132367;19;20206;-84
2023/09/01 17:14:39;;;;;;;;;;;24.40;50.20;;;23.65;50.77;101064.88;12136175;19;20271;-84
2023/09/01 17:18:43;;;;;;;;;;;24.30;50.20;;;23.54;50.64;101058.00;12136799;19;19933;-84
2023/09/01 17:22:45;;;;;;;;;;;24.30;50.20;;;23.47;50.91;101056.19;12130906;19;19952;-84
2023/09/01 17:26:46;;;;;;;;;;;24.20;50.20;;;23.42;50.99;101057.47;12133580;19;19930;-84
2023/09/01 17:30:48;;;;;;;;;;;24.10;50.10;;;23.35;50.42;101061.78;12131634;19;19934;-84
2023/09/01 17:34:49;;;;;;;;;;;24.00;50.10;;;23.34;50.90;101069.94;12142301;19;20219;-84
2023/09/01 17:38:51;;;;;;;;;;;23.90;50.10;;;23.23;50.58;101071.06;12147298;19;19926;-84
2023/09/01 17:42:53;;;;;;;;;;;23.90;50.10;;;23.18;50.61;101071.53;12140584;19;19953;-85
2023/09/01 17:46:54;;;;;;;;;;;23.80;50.10;;;23.12;50.95;101074.84;12144016;19;19919;-84
2023/09/01 17:50:56;;;;;;;;;;;23.80;50.10;;;23.09;51.05;101080.47;12137950;19;19933;-84
2023/09/01 17:54:57;;;;;;;;;;;23.70;50.00;;;22.94;50.65;101080.19;12143820;19;19933;-84
2023/09/01 17:58:59;;;;;;;;;;;23.60;50.10;;;22.92;50.97;101092.81;12145064;19;20017;-84
2023/09/01 18:03:01;;;;;;;;;;;23.50;50.10;;;22.90;50.86;101089.50;12138374;19;19930;-84
2023/09/01 18:07:02;;;;;;;;;;;23.50;50.10;;;22.86;51.06;101092.59;12142891;19;19919;-84
2023/09/01 18:11:04;;;;;;;;;;;23.40;50.10;;;22.75;51.01;101105.19;12137594;19;19931;-84